Time;durP1;ratioP1;P1;durP2;ratioP2;P2;SDS_P1;SDS_P2;PMS_P1;PMS_P2;Temp;Humidity;BMP_temperature;BMP_pressure;BME280_temperature;BME280_humidity;BME280_pressure;Samples;Min_cycle;Max_cycle;Signal;HPM_P1;HPM_P2
2023/07/22 00:01:00;;;;;;;1999.90;999.90;;;12.40;99.90;;;;;;5028094;28;20040;-71
2023/07/22 00:03:26;;;;;;;1999.90;999.90;;;12.40;99.90;;;;;;5046392;28;20493;-71
2023/07/22 00:06:06;;;;;;;1999.90;999.90;;;12.30;99.90;;;;;;5046760;28;20695;-71
2023/07/22 00:08:35;;;;;;;1999.90;999.90;;;12.30;99.90;;;;;;5034552;28;20124;-71
2023/07/22 00:11:01;;;;;;;1999.90;999.90;;;12.30;99.90;;;;;;5046973;28;20049;-71
2023/07/22 00:13:27;;;;;;;1999.90;999.90;;;12.20;99.90;;;;;;5029708;28;20519;-72
2023/07/22 00:15:56;;;;;;;1999.90;999.90;;;12.30;99.90;;;;;;5038113;28;20042;-71
2023/07/22 00:18:22;;;;;;;1999.90;999.90;;;12.20;99.90;;;;;;5045453;28;20090;-71
2023/07/22 00:20:48;;;;;;;1999.90;999.90;;;12.20;99.90;;;;;;5047128;28;20184;-71
2023/07/22 00:23:15;;;;;;;1999.90;999.90;;;12.20;99.90;;;;;;5017555;28;20136;-71
2023/07/22 00:25:41;;;;;;;1999.90;999.90;;;12.10;99.90;;;;;;5046219;28;20044;-71
2023/07/22 00:28:07;;;;;;;1999.90;999.90;;;12.10;99.90;;;;;;5043243;28;20028;-71
2023/07/22 00:30:32;;;;;;;1999.90;999.90;;;12.10;99.90;;;;;;5021587;28;20048;-71
2023/07/22 00:32:58;;;;;;;1999.90;999.90;;;12.10;99.90;;;;;;5046828;28;20041;-71
2023/07/22 00:35:24;;;;;;;1999.90;999.90;;;12.10;99.90;;;;;;5028402;28;20040;-71
2023/07/22 00:37:49;;;;;;;1999.90;999.90;;;12.10;99.90;;;;;;5046668;28;20405;-71
2023/07/22 00:40:15;;;;;;;1999.90;999.90;;;12.10;99.90;;;;;;5045641;28;20036;-71
2023/07/22 00:42:41;;;;;;;1999.90;999.90;;;12.00;99.90;;;;;;5046573;28;20037;-71
2023/07/22 00:45:07;;;;;;;1999.90;999.90;;;12.00;99.90;;;;;;5045386;28;20040;-71
2023/07/22 00:47:34;;;;;;;1999.90;999.90;;;11.90;99.90;;;;;;5029496;28;20048;-71
2023/07/22 00:50:06;;;;;;;1999.90;999.90;;;11.90;99.90;;;;;;5034946;28;20501;-71
2023/07/22 00:52:32;;;;;;;1999.90;999.90;;;11.80;99.90;;;;;;5028492;28;20122;-71
2023/07/22 00:54:58;;;;;;;1999.90;999.90;;;11.80;99.90;;;;;;5046720;28;20134;-71
2023/07/22 00:57:24;;;;;;;1999.90;999.90;;;11.70;99.90;;;;;;5041074;28;20607;-71
2023/07/22 00:59:49;;;;;;;1999.90;999.90;;;11.70;99.90;;;;;;5026775;28;20087;-71
2023/07/22 01:02:15;;;;;;;1999.90;999.90;;;11.60;99.90;;;;;;5040656;28;20156;-71
2023/07/22 01:04:41;;;;;;;1999.90;999.90;;;11.60;99.90;;;;;;5038464;28;20199;-71
2023/07/22 01:07:09;;;;;;;1999.90;999.90;;;11.60;99.90;;;;;;5019696;28;20045;-71
2023/07/22 01:09:40;;;;;;;1999.90;999.90;;;11.60;99.90;;;;;;5036518;28;20054;-71
2023/07/22 01:12:06;;;;;;;1999.90;999.90;;;11.60;99.90;;;;;;5050118;28;20397;-71
2023/07/22 01:14:37;;;;;;;1999.90;999.90;;;11.60;99.90;;;;;;5040955;28;20041;-71
2023/07/22 01:17:04;;;;;;;1999.90;999.90;;;11.60;99.90;;;;;;5055343;28;20468;-71
2023/07/22 01:19:31;;;;;;;1999.90;999.90;;;11.60;99.90;;;;;;5049337;28;20037;-71
2023/07/22 01:22:05;;;;;;;1999.90;999.90;;;11.70;99.90;;;;;;5029194;28;20080;-71
2023/07/22 01:24:31;;;;;;;1999.90;999.90;;;11.70;99.90;;;;;;5033152;28;20038;-71
2023/07/22 01:26:57;;;;;;;1999.90;999.90;;;11.70;99.90;;;;;;5035303;28;20476;-71
2023/07/22 01:29:23;;;;;;;1999.90;999.90;;;11.70;99.90;;;;;;5051271;28;20050;-71
2023/07/22 01:31:51;;;;;;;1999.90;999.90;;;11.60;99.90;;;;;;5027915;28;20041;-71
2023/07/22 01:34:17;;;;;;;1999.90;999.90;;;11.60;99.90;;;;;;5052206;28;20062;-71
2023/07/22 01:36:44;;;;;;;1999.90;999.90;;;11.60;99.90;;;;;;5052059;28;20045;-71
2023/07/22 01:39:13;;;;;;;1999.90;999.90;;;11.50;99.90;;;;;;5051937;28;20043;-71
2023/07/22 01:41:39;;;;;;;1999.90;999.90;;;11.50;99.90;;;;;;5052135;28;20131;-71
2023/07/22 01:44:05;;;;;;;1999.90;999.90;;;11.40;99.90;;;;;;5046241;28;20148;-71
2023/07/22 01:46:31;;;;;;;1999.90;999.90;;;11.40;99.90;;;;;;5061618;28;20045;-71
2023/07/22 01:48:56;;;;;;;1999.90;999.90;;;11.40;99.90;;;;;;5034490;28;20037;-71
2023/07/22 01:51:22;;;;;;;1999.90;999.90;;;11.40;99.90;;;;;;5035561;28;20045;-71
2023/07/22 01:53:49;;;;;;;1999.90;999.90;;;11.30;99.90;;;;;;5049215;28;20041;-71
2023/07/22 01:56:16;;;;;;;1999.90;999.90;;;11.30;99.90;;;;;;5057522;28;20075;-71
2023/07/22 01:58:42;;;;;;;1999.90;999.90;;;11.20;99.90;;;;;;5052579;28;20393;-71
2023/07/22 02:01:08;;;;;;;1999.90;999.90;;;11.20;99.90;;;;;;5068907;28;20041;-71
2023/07/22 02:03:34;;;;;;;1999.90;999.90;;;11.10;99.90;;;;;;5051391;28;20041;-71
2023/07/22 02:06:03;;;;;;;1999.90;999.90;;;11.00;99.90;;;;;;5046183;28;20055;-71
2023/07/22 02:08:29;;;;;;;1999.90;999.90;;;11.00;99.90;;;;;;5046034;28;20049;-71
2023/07/22 02:11:03;;;;;;;1999.90;999.90;;;10.90;99.90;;;;;;5052090;28;20048;-71
2023/07/22 02:13:30;;;;;;;1999.90;999.90;;;10.90;99.90;;;;;;5036004;28;20063;-71
2023/07/22 02:15:55;;;;;;;1999.90;999.90;;;10.90;99.90;;;;;;5052401;28;20530;-71
2023/07/22 02:18:21;;;;;;;1999.90;999.90;;;10.80;99.90;;;;;;5028716;28;20037;-70
2023/07/22 02:20:47;;;;;;;1999.90;999.90;;;10.80;99.90;;;;;;5047996;28;20489;-71
2023/07/22 02:23:12;;;;;;;1999.90;999.90;;;10.70;99.90;;;;;;5035242;28;20041;-71
2023/07/22 02:25:38;;;;;;;1999.90;999.90;;;10.70;99.90;;;;;;5038013;28;20044;-71
2023/07/22 02:28:04;;;;;;;1999.90;999.90;;;10.60;99.90;;;;;;5034287;28;20080;-71
2023/07/22 02:30:29;;;;;;;1999.90;999.90;;;10.60;99.90;;;;;;5019583;28;20558;-71
2023/07/22 02:32:55;;;;;;;1999.90;999.90;;;10.60;99.90;;;;;;5036288;28;20067;-71
2023/07/22 02:35:21;;;;;;;1999.90;999.90;;;10.50;99.90;;;;;;5046753;28;20484;-71
2023/07/22 02:37:47;;;;;;;1999.90;999.90;;;10.50;99.90;;;;;;5039035;28;20041;-71
2023/07/22 02:40:12;;;;;;;1999.90;999.90;;;10.40;99.90;;;;;;5047203;28;20096;-71
2023/07/22 02:42:39;;;;;;;1999.90;999.90;;;10.40;99.90;;;;;;5034739;28;20127;-71
2023/07/22 02:45:07;;;;;;;1999.90;999.90;;;10.40;99.90;;;;;;5029170;28;20037;-71
2023/07/22 02:47:34;;;;;;;1999.90;999.90;;;10.30;99.90;;;;;;5042725;28;20132;-71
2023/07/22 02:50:00;;;;;;;1999.90;999.90;;;10.30;99.90;;;;;;5049158;28;20378;-71
2023/07/22 02:52:25;;;;;;;1999.90;999.90;;;10.30;99.90;;;;;;5044555;28;20037;-71
2023/07/22 02:55:12;;;;;;;1999.90;999.90;;;10.20;99.90;;;;;;5044814;28;20445;-71
2023/07/22 02:57:39;;;;;;;1999.90;999.90;;;10.20;99.90;;;;;;5046184;28;20528;-71
2023/07/22 03:00:08;;;;;;;1999.90;999.90;;;10.10;99.90;;;;;;5048002;28;20049;-71
2023/07/22 03:02:38;;;;;;;1999.90;999.90;;;10.10;99.90;;;;;;5029298;28;20040;-71
2023/07/22 03:05:07;;;;;;;1999.90;999.90;;;10.10;99.90;;;;;;5021078;28;20533;-71
2023/07/22 03:07:42;;;;;;;1999.90;999.90;;;10.10;99.90;;;;;;5045902;28;20053;-71
2023/07/22 03:10:08;;;;;;;1999.90;999.90;;;10.10;99.90;;;;;;5030283;28;20106;-70
2023/07/22 03:12:35;;;;;;;1999.90;999.90;;;10.10;99.90;;;;;;5030735;28;20049;-71
2023/07/22 03:15:01;;;;;;;1999.90;999.90;;;10.10;99.90;;;;;;5038241;28;20596;-70
2023/07/22 03:17:27;;;;;;;1999.90;999.90;;;10.20;99.90;;;;;;5027228;28;20045;-70
2023/07/22 03:19:53;;;;;;;1999.90;999.90;;;10.30;99.90;;;;;;5047431;28;20045;-71
2023/07/22 03:22:18;;;;;;;1999.90;999.90;;;10.30;99.90;;;;;;5036747;28;20041;-70
2023/07/22 03:24:45;;;;;;;1999.90;999.90;;;10.20;99.90;;;;;;5031085;28;20083;-72
2023/07/22 03:27:11;;;;;;;1999.90;999.90;;;10.20;99.90;;;;;;5034328;28;20060;-71
2023/07/22 03:29:38;;;;;;;1999.90;999.90;;;10.30;99.90;;;;;;5034565;28;20041;-71
2023/07/22 03:32:04;;;;;;;1999.90;999.90;;;10.30;99.90;;;;;;5040966;28;20041;-71
2023/07/22 03:34:30;;;;;;;1999.90;999.90;;;10.30;99.90;;;;;;5030766;28;20048;-70
2023/07/22 03:36:56;;;;;;;1999.90;999.90;;;10.40;99.90;;;;;;5046221;28;20387;-71
2023/07/22 03:39:22;;;;;;;1999.90;999.90;;;10.40;99.90;;;;;;5048211;28;20075;-71
2023/07/22 03:41:48;;;;;;;1999.90;999.90;;;10.40;99.90;;;;;;5050774;28;20047;-71
2023/07/22 03:44:14;;;;;;;1999.90;999.90;;;10.40;99.90;;;;;;5045277;28;20067;-70
2023/07/22 03:46:40;;;;;;;1999.90;999.90;;;10.40;99.90;;;;;;5046054;28;20038;-70
2023/07/22 03:49:05;;;;;;;1999.90;999.90;;;10.50;99.90;;;;;;5046327;28;20045;-70
2023/07/22 03:51:31;;;;;;;1999.90;999.90;;;10.50;99.90;;;;;;5045610;28;20496;-71
2023/07/22 03:53:57;;;;;;;1999.90;999.90;;;10.60;99.90;;;;;;5024343;28;20052;-71
2023/07/22 03:56:25;;;;;;;1999.90;999.90;;;10.60;99.90;;;;;;5041290;28;20056;-71
2023/07/22 03:58:52;;;;;;;1999.90;999.90;;;10.70;99.90;;;;;;5050318;28;20064;-71
2023/07/22 04:01:18;;;;;;;1999.90;999.90;;;10.80;99.90;;;;;;5046456;28;20059;-71
2023/07/22 04:03:43;;;;;;;1999.90;999.90;;;10.90;99.90;;;;;;5046808;28;20036;-71
2023/07/22 04:06:09;;;;;;;1999.90;999.90;;;11.00;99.90;;;;;;5042212;28;20209;-71
2023/07/22 04:08:34;;;;;;;1999.90;999.90;;;11.10;99.90;;;;;;5038195;28;20048;-71
2023/07/22 04:11:00;;;;;;;1999.90;999.90;;;11.20;99.90;;;;;;5047176;28;20569;-71
2023/07/22 04:13:26;;;;;;;1999.90;999.90;;;11.20;99.90;;;;;;5039587;28;20135;-71
2023/07/22 04:15:52;;;;;;;1999.90;999.90;;;11.30;99.90;;;;;;5041101;28;20088;-70
2023/07/22 04:18:19;;;;;;;1999.90;999.90;;;11.40;99.90;;;;;;5035604;28;20049;-71
2023/07/22 04:20:45;;;;;;;1999.90;999.90;;;11.50;99.90;;;;;;5040568;28;20560;-71
2023/07/22 04:23:12;;;;;;;1999.90;999.90;;;11.50;99.90;;;;;;5045496;28;20079;-71
2023/07/22 04:25:47;;;;;;;1999.90;999.90;;;11.60;99.90;;;;;;5045316;28;20063;-71
2023/07/22 04:28:13;;;;;;;1999.90;999.90;;;11.70;99.90;;;;;;5047115;28;20076;-71
2023/07/22 04:30:39;;;;;;;1999.90;999.90;;;11.70;99.90;;;;;;5046429;28;20083;-71
2023/07/22 04:33:05;;;;;;;1999.90;999.90;;;11.80;99.90;;;;;;5043100;28;20048;-71
2023/07/22 04:35:40;;;;;;;1999.90;999.90;;;11.80;99.90;;;;;;5029366;28;20036;-71
2023/07/22 04:38:07;;;;;;;1999.90;999.90;;;11.80;99.90;;;;;;5028746;28;20040;-71
2023/07/22 04:40:32;;;;;;;1999.90;999.90;;;11.90;99.90;;;;;;5042705;28;20072;-71
2023/07/22 04:42:58;;;;;;;1999.90;999.90;;;11.90;99.90;;;;;;5034665;28;20513;-71
2023/07/22 04:45:24;;;;;;;1999.90;999.90;;;12.00;99.90;;;;;;5044399;28;20037;-71
2023/07/22 04:47:52;;;;;;;1999.90;999.90;;;12.00;99.90;;;;;;5045216;28;20041;-71
2023/07/22 04:50:18;;;;;;;1999.90;999.90;;;12.10;99.90;;;;;;5033009;28;20040;-71
2023/07/22 04:52:47;;;;;;;1999.90;999.90;;;12.10;99.90;;;;;;5046270;28;20535;-71
2023/07/22 04:55:14;;;;;;;1999.90;999.90;;;12.20;99.90;;;;;;5045697;28;20083;-71
2023/07/22 04:57:41;;;;;;;1999.90;999.90;;;12.20;99.90;;;;;;5035587;28;20493;-71
2023/07/22 05:00:16;;;;;;;1999.90;999.90;;;12.30;99.90;;;;;;5018150;28;20339;-71
2023/07/22 05:02:45;;;;;;;1999.90;999.90;;;12.30;99.90;;;;;;5026010;28;20064;-71
2023/07/22 05:05:12;;;;;;;1999.90;999.90;;;12.40;99.90;;;;;;5035173;28;20057;-71
2023/07/22 05:07:38;;;;;;;1999.90;999.90;;;12.40;99.90;;;;;;5041128;28;20436;-71
2023/07/22 05:10:03;;;;;;;1999.90;999.90;;;12.40;99.90;;;;;;5029554;28;20041;-71
2023/07/22 05:12:29;;;;;;;1999.90;999.90;;;12.50;99.90;;;;;;5036477;28;20131;-71
2023/07/22 05:14:55;;;;;;;1999.90;999.90;;;12.60;99.90;;;;;;5027405;28;20041;-71
2023/07/22 05:17:21;;;;;;;1999.90;999.90;;;12.60;99.90;;;;;;5026479;28;20140;-71
2023/07/22 05:19:48;;;;;;;1999.90;999.90;;;12.70;99.90;;;;;;5045713;28;20045;-71
2023/07/22 05:22:14;;;;;;;1999.90;999.90;;;12.80;99.90;;;;;;5045523;28;20037;-71
2023/07/22 05:24:40;;;;;;;1999.90;999.90;;;12.90;99.90;;;;;;5045270;28;20461;-71
2023/07/22 05:27:05;;;;;;;1999.90;999.90;;;13.00;99.90;;;;;;5046040;28;20045;-71
2023/07/22 05:29:31;;;;;;;1999.90;999.90;;;13.00;99.90;;;;;;5027104;28;20114;-71
2023/07/22 05:31:57;;;;;;;1999.90;999.90;;;13.10;99.90;;;;;;5040583;28;20045;-71
2023/07/22 05:34:23;;;;;;;1999.90;999.90;;;13.20;99.90;;;;;;5020216;28;20451;-71
2023/07/22 05:36:48;;;;;;;1999.90;999.90;;;13.30;99.90;;;;;;5044757;28;20559;-71
2023/07/22 05:39:17;;;;;;;1999.90;999.90;;;13.50;99.90;;;;;;5025166;28;20033;-71
2023/07/22 05:41:43;;;;;;;1999.90;999.90;;;13.60;99.90;;;;;;5033094;28;20049;-71
2023/07/22 05:44:08;;;;;;;1999.90;999.90;;;13.70;99.90;;;;;;5042001;28;20059;-71
2023/07/22 05:46:34;;;;;;;1999.90;999.90;;;13.90;99.90;;;;;;5035220;28;20052;-71
2023/07/22 05:48:59;;;;;;;1999.90;999.90;;;14.00;99.90;;;;;;5043535;28;20048;-71
2023/07/22 05:51:25;;;;;;;1999.90;999.90;;;14.20;99.90;;;;;;5017882;28;20045;-71
2023/07/22 05:53:51;;;;;;;1999.90;999.90;;;14.30;99.90;;;;;;5044800;28;20048;-71
2023/07/22 05:56:17;;;;;;;1999.90;999.90;;;14.40;99.90;;;;;;5045773;28;20037;-71
2023/07/22 05:58:42;;;;;;;1999.90;999.90;;;14.40;99.90;;;;;;5040091;28;20037;-71
2023/07/22 06:01:08;;;;;;;1999.90;999.90;;;14.40;99.90;;;;;;5018985;28;20041;-71
2023/07/22 06:03:34;;;;;;;1999.90;999.90;;;14.50;99.90;;;;;;5042841;28;20136;-71
2023/07/22 06:06:00;;;;;;;1999.90;999.90;;;14.60;99.90;;;;;;5041160;28;20128;-71
2023/07/22 06:08:25;;;;;;;1999.90;999.90;;;14.60;99.90;;;;;;5027261;28;20053;-71
2023/07/22 06:10:52;;;;;;;1999.90;999.90;;;14.70;99.90;;;;;;5045344;28;20467;-71
2023/07/22 06:13:17;;;;;;;1999.90;999.90;;;14.80;99.90;;;;;;5047696;28;20451;-71
2023/07/22 06:15:43;;;;;;;1999.90;999.90;;;14.90;99.90;;;;;;5026633;28;20041;-71
2023/07/22 06:18:08;;;;;;;1999.90;999.90;;;15.00;99.90;;;;;;5032897;28;20068;-71
2023/07/22 06:20:35;;;;;;;1999.90;999.90;;;15.20;99.90;;;;;;5045589;28;20041;-72
2023/07/22 06:23:02;;;;;;;1999.90;999.90;;;15.30;99.90;;;;;;5041713;28;20451;-71
2023/07/22 06:25:27;;;;;;;1999.90;999.90;;;15.40;99.90;;;;;;5044084;28;20045;-71
2023/07/22 06:27:56;;;;;;;1999.90;999.90;;;15.50;99.90;;;;;;5028848;28;20049;-71
2023/07/22 06:30:21;;;;;;;1999.90;999.90;;;15.60;99.90;;;;;;5023793;28;20045;-71
2023/07/22 06:32:47;;;;;;;1999.90;999.90;;;15.80;99.90;;;;;;5037455;28;20091;-71
2023/07/22 06:35:13;;;;;;;1999.90;999.90;;;16.00;99.90;;;;;;5039286;28;20094;-71
2023/07/22 06:37:40;;;;;;;1999.90;999.90;;;16.30;99.90;;;;;;5047131;28;20056;-71
2023/07/22 06:40:06;;;;;;;1999.90;999.90;;;16.60;99.90;;;;;;5054902;28;20112;-72
2023/07/22 06:42:31;;;;;;;1999.90;999.90;;;17.00;99.90;;;;;;5058198;28;20091;-71
2023/07/22 06:44:57;;;;;;;1999.90;999.90;;;17.50;99.90;;;;;;5048499;28;20481;-71
2023/07/22 06:47:23;;;;;;;1999.90;999.90;;;17.80;99.90;;;;;;5048781;28;20049;-71
2023/07/22 06:49:50;;;;;;;1999.90;999.90;;;18.20;99.90;;;;;;5040451;28;20056;-71
2023/07/22 06:52:16;;;;;;;1999.90;999.90;;;18.60;99.90;;;;;;5045289;28;20534;-71
2023/07/22 06:54:41;;;;;;;1999.90;999.90;;;18.80;99.90;;;;;;5045610;28;20036;-71
2023/07/22 06:57:07;;;;;;;1999.90;999.90;;;18.80;99.90;;;;;;5042763;28;20069;-72
2023/07/22 06:59:33;;;;;;;1999.90;999.90;;;18.70;99.90;;;;;;5017435;28;20048;-71
2023/07/22 07:01:59;;;;;;;1999.90;999.90;;;18.60;99.90;;;;;;5047832;28;20500;-71
2023/07/22 07:04:25;;;;;;;1999.90;999.90;;;18.60;99.90;;;;;;5024903;28;20036;-71
2023/07/22 07:06:50;;;;;;;1999.90;999.90;;;18.30;99.90;;;;;;5025983;28;20056;-71
2023/07/22 07:09:16;;;;;;;1999.90;999.90;;;18.00;99.90;;;;;;5044521;28;20048;-71
2023/07/22 07:11:42;;;;;;;1999.90;999.90;;;17.70;99.90;;;;;;5029746;28;20047;-71
2023/07/22 07:14:07;;;;;;;1999.90;999.90;;;17.50;99.90;;;;;;5031869;28;20563;-71
2023/07/22 07:16:33;;;;;;;1999.90;999.90;;;17.40;99.90;;;;;;5030769;28;20041;-71
2023/07/22 07:19:00;;;;;;;1999.90;999.90;;;17.30;99.90;;;;;;5044816;28;20505;-70
2023/07/22 07:21:26;;;;;;;1999.90;999.90;;;17.30;99.90;;;;;;5037441;28;20044;-71
2023/07/22 07:23:53;;;;;;;1999.90;999.90;;;17.10;99.90;;;;;;5027898;28;20773;-71
2023/07/22 07:26:19;;;;;;;1999.90;999.90;;;16.90;99.90;;;;;;5037148;28;20041;-71
2023/07/22 07:28:46;;;;;;;1999.90;999.90;;;16.90;99.90;;;;;;5030447;28;20574;-70
2023/07/22 07:31:12;;;;;;;1999.90;999.90;;;16.80;99.90;;;;;;5038024;28;20148;-70
2023/07/22 07:33:38;;;;;;;1999.90;999.90;;;16.90;99.90;;;;;;5038512;28;20132;-71
2023/07/22 07:36:04;;;;;;;1999.90;999.90;;;17.20;99.90;;;;;;5033587;28;20177;-71
2023/07/22 07:38:29;;;;;;;1999.90;999.90;;;17.30;99.90;;;;;;5029496;28;20549;-71
2023/07/22 07:40:57;;;;;;;1999.90;999.90;;;17.70;99.90;;;;;;5039477;28;20040;-71
2023/07/22 07:43:23;;;;;;;1999.90;999.90;;;18.40;99.90;;;;;;5033132;28;20546;-71
2023/07/22 07:45:49;;;;;;;1999.90;999.90;;;18.60;99.90;;;;;;5047033;28;20044;-70
2023/07/22 07:48:15;;;;;;;1999.90;999.90;;;18.70;99.90;;;;;;5040614;28;20033;-71
2023/07/22 07:50:41;;;;;;;1999.90;999.90;;;18.60;99.90;;;;;;5043477;28;20102;-70
2023/07/22 07:53:07;;;;;;;1999.90;999.90;;;18.60;99.90;;;;;;5035573;28;20052;-70
2023/07/22 07:55:32;;;;;;;1999.90;999.90;;;18.60;99.90;;;;;;5029776;28;20041;-71
2023/07/22 07:57:58;;;;;;;1999.90;999.90;;;18.60;99.90;;;;;;5044656;28;20052;-70
2023/07/22 08:00:24;;;;;;;625.75;589.80;;;18.70;99.90;;;;;;5034676;28;20362;-71
2023/07/22 08:02:49;;;;;;;1999.90;999.90;;;18.70;99.90;;;;;;5034624;28;20187;-70
2023/07/22 08:05:16;;;;;;;1320.43;801.17;;;18.80;99.90;;;;;;5039563;28;20563;-70
2023/07/22 08:07:41;;;;;;;996.58;716.30;;;18.80;99.90;;;;;;5027037;28;20084;-71
2023/07/22 08:10:07;;;;;;;657.95;618.63;;;18.60;99.90;;;;;;5043270;28;20075;-70
2023/07/22 08:12:33;;;;;;;615.53;580.17;;;18.60;99.90;;;;;;5042112;28;20486;-71
2023/07/22 08:14:59;;;;;;;625.53;589.28;;;18.60;99.90;;;;;;5041136;28;20507;-70
2023/07/22 08:17:25;;;;;;;620.83;584.47;;;18.60;99.90;;;;;;5026608;28;20208;-70
2023/07/22 08:19:51;;;;;;;740.85;694.40;;;18.60;99.90;;;;;;5044301;28;20480;-71
2023/07/22 08:22:17;;;;;;;735.45;688.75;;;18.60;99.90;;;;;;5016624;28;20033;-70
2023/07/22 08:24:43;;;;;;;674.35;633.13;;;18.70;99.90;;;;;;5023955;28;20059;-71
2023/07/22 08:27:09;;;;;;;697.03;653.70;;;18.90;99.90;;;;;;5039288;28;20037;-70
2023/07/22 08:29:35;;;;;;;736.55;690.35;;;19.20;99.90;;;;;;5031710;28;20056;-71
2023/07/22 08:32:00;;;;;;;732.47;685.35;;;19.40;99.90;;;;;;5030003;28;20049;-70
2023/07/22 08:34:26;;;;;;;777.38;726.60;;;19.60;99.90;;;;;;5026404;28;20051;-71
2023/07/22 08:36:52;;;;;;;683.20;641.53;;;19.60;99.90;;;;;;5041865;28;20053;-70
2023/07/22 08:39:18;;;;;;;761.92;712.78;;;19.70;99.90;;;;;;5041982;28;20089;-70
2023/07/22 08:41:50;;;;;;;682.67;640.58;;;19.70;99.90;;;;;;5029836;28;20033;-70
2023/07/22 08:44:20;;;;;;;642.83;603.70;;;19.70;99.90;;;;;;5040487;28;20112;-70
2023/07/22 08:46:47;;;;;;;732.83;685.80;;;19.90;99.90;;;;;;5041654;28;20044;-70
2023/07/22 08:49:13;;;;;;;667.78;627.33;;;20.10;99.90;;;;;;5023811;28;20047;-70
2023/07/22 08:51:39;;;;;;;680.47;637.80;;;20.30;99.90;;;;;;5033258;28;20037;-70
2023/07/22 08:54:05;;;;;;;703.42;659.80;;;20.50;99.90;;;;;;5044520;28;20170;-70
2023/07/22 08:56:32;;;;;;;677.25;635.20;;;20.50;99.90;;;;;;5039115;28;20052;-70
2023/07/22 08:58:58;;;;;;;713.78;668.92;;;20.50;99.90;;;;;;5023214;28;20034;-70
2023/07/22 09:01:24;;;;;;;618.50;581.70;;;20.60;99.90;;;;;;5023972;28;20073;-70
2023/07/22 09:03:52;;;;;;;785.92;734.63;;;20.60;99.90;;;;;;5040238;28;20059;-70
2023/07/22 09:06:19;;;;;;;812.30;758.83;;;20.40;99.90;;;;;;5038997;28;20088;-70
2023/07/22 09:08:45;;;;;;;785.58;734.35;;;20.10;99.90;;;;;;5045156;28;20048;-70
2023/07/22 09:11:11;;;;;;;822.47;767.35;;;19.70;99.90;;;;;;5043109;28;20098;-70
2023/07/22 09:13:39;;;;;;;712.60;668.08;;;19.40;99.90;;;;;;5032841;28;20037;-71
2023/07/22 09:16:06;;;;;;;659.15;617.40;;;19.10;99.90;;;;;;5027449;28;20087;-71
2023/07/22 09:18:34;;;;;;;629.08;590.13;;;18.70;99.90;;;;;;5038054;28;20112;-70
2023/07/22 09:20:59;;;;;;;668.83;626.40;;;18.20;99.90;;;;;;5031460;28;20406;-69
2023/07/22 09:23:36;;;;;;;1999.90;999.90;;;17.70;99.90;;;;;;5042963;28;20059;-69
2023/07/22 09:26:10;;;;;;;1999.90;999.90;;;17.20;99.90;;;;;;5028068;28;20119;-70
2023/07/22 09:29:05;;;;;;;1999.90;999.90;;;16.80;99.90;;;;;;5027818;28;20132;-69
2023/07/22 09:31:32;;;;;;;1999.90;999.90;;;16.70;99.90;;;;;;5033552;28;20044;-70
2023/07/22 09:34:10;;;;;;;1999.90;999.90;;;16.70;99.90;;;;;;5045165;28;20119;-70
2023/07/22 09:36:53;;;;;;;1999.90;999.90;;;16.70;99.90;;;;;;5037801;28;20041;-70
2023/07/22 09:39:18;;;;;;;1999.90;999.90;;;16.70;99.90;;;;;;5042726;28;20463;-70
2023/07/22 09:41:45;;;;;;;1999.90;999.90;;;16.80;99.90;;;;;;5033634;28;20343;-70
2023/07/22 09:44:12;;;;;;;1999.90;999.90;;;16.90;99.90;;;;;;5049752;28;20077;-70
2023/07/22 09:46:37;;;;;;;1999.90;999.90;;;17.10;99.90;;;;;;5041182;28;20052;-70
2023/07/22 09:49:05;;;;;;;1999.90;999.90;;;17.30;99.90;;;;;;5046741;28;20047;-70
2023/07/22 09:51:40;;;;;;;1999.90;999.90;;;17.50;99.90;;;;;;5031111;28;20139;-70
2023/07/22 09:54:07;;;;;;;1999.90;999.90;;;17.70;99.90;;;;;;5037708;28;20057;-70
2023/07/22 09:56:43;;;;;;;1999.90;999.90;;;17.90;99.90;;;;;;5048190;28;20037;-70
2023/07/22 09:59:10;;;;;;;1999.90;999.90;;;18.10;99.90;;;;;;5031562;28;20037;-70
2023/07/22 10:01:39;;;;;;;1999.90;999.90;;;18.10;99.90;;;;;;5049795;28;20455;-70
2023/07/22 10:04:05;;;;;;;1999.90;999.90;;;17.90;99.90;;;;;;5044919;28;20056;-70
2023/07/22 10:06:32;;;;;;;1999.90;999.90;;;17.80;99.90;;;;;;5048101;28;20202;-70
2023/07/22 10:09:02;;;;;;;1999.90;999.90;;;17.70;99.90;;;;;;5044686;28;20053;-70
2023/07/22 10:11:28;;;;;;;1999.90;999.90;;;17.60;99.90;;;;;;5039681;28;20120;-70
2023/07/22 10:13:55;;;;;;;1999.90;999.90;;;17.60;99.90;;;;;;5042061;28;20052;-70
2023/07/22 10:16:21;;;;;;;1999.90;999.90;;;17.50;99.90;;;;;;5040209;28;20365;-70
2023/07/22 10:18:48;;;;;;;1999.90;999.90;;;17.50;99.90;;;;;;5044755;28;20385;-70
2023/07/22 10:21:15;;;;;;;1999.90;999.90;;;17.50;99.90;;;;;;5024123;28;20037;-71
2023/07/22 10:23:41;;;;;;;1999.90;999.90;;;17.50;99.90;;;;;;5042287;28;20037;-70
2023/07/22 10:26:10;;;;;;;1999.90;999.90;;;17.50;99.90;;;;;;5035383;28;20041;-71
2023/07/22 10:28:36;;;;;;;1999.90;999.90;;;17.40;99.90;;;;;;5047221;28;20055;-70
2023/07/22 10:31:02;;;;;;;1999.90;999.90;;;17.30;99.90;;;;;;5050225;28;20118;-70
2023/07/22 10:33:29;;;;;;;1999.90;999.90;;;17.20;99.90;;;;;;5022483;28;20049;-71
2023/07/22 10:36:06;;;;;;;1999.90;999.90;;;17.20;99.90;;;;;;5043387;28;20523;-70
2023/07/22 10:38:34;;;;;;;1999.90;999.90;;;17.20;99.90;;;;;;5042775;28;20136;-70
2023/07/22 10:40:59;;;;;;;1999.90;999.90;;;17.20;99.90;;;;;;5040875;28;20080;-70
2023/07/22 10:43:33;;;;;;;1999.90;999.90;;;17.20;99.90;;;;;;5035708;28;20060;-70
2023/07/22 10:46:09;;;;;;;1999.90;999.90;;;17.20;99.90;;;;;;5029127;28;20032;-70
2023/07/22 10:48:37;;;;;;;1999.90;999.90;;;17.10;99.90;;;;;;5043777;28;20049;-70
2023/07/22 10:51:15;;;;;;;1999.90;999.90;;;17.00;99.90;;;;;;5022939;28;20049;-70
2023/07/22 10:53:46;;;;;;;1999.90;999.90;;;16.90;99.90;;;;;;5041236;28;20051;-71
2023/07/22 10:56:30;;;;;;;1999.90;999.90;;;16.90;99.90;;;;;;5043564;28;20045;-70
2023/07/22 10:58:58;;;;;;;1999.90;999.90;;;16.90;99.90;;;;;;5036957;28;20051;-70
2023/07/22 11:01:27;;;;;;;1999.90;999.90;;;16.80;99.90;;;;;;5028387;28;20275;-70
2023/07/22 11:04:18;;;;;;;1999.90;999.90;;;16.80;99.90;;;;;;5045787;28;20045;-70
2023/07/22 11:06:43;;;;;;;1999.90;999.90;;;16.70;99.90;;;;;;5046289;28;20610;-70
2023/07/22 11:09:27;;;;;;;1999.90;999.90;;;16.70;99.90;;;;;;5047018;28;20158;-70
2023/07/22 11:12:15;;;;;;;1999.90;999.90;;;16.70;99.90;;;;;;5034954;28;20136;-70
2023/07/22 11:14:45;;;;;;;1999.90;999.90;;;16.70;99.90;;;;;;5038550;28;20073;-70
2023/07/22 11:17:11;;;;;;;1999.90;999.90;;;16.80;99.90;;;;;;5025629;28;20409;-70
2023/07/22 11:19:37;;;;;;;1999.90;999.90;;;16.80;99.90;;;;;;5021708;28;20029;-70
2023/07/22 11:22:04;;;;;;;1999.90;999.90;;;16.80;99.90;;;;;;5050185;28;20212;-70
2023/07/22 11:24:32;;;;;;;1999.90;999.90;;;16.80;99.90;;;;;;5024612;28;20123;-71
2023/07/22 11:26:58;;;;;;;1999.90;999.90;;;16.80;99.90;;;;;;5045539;28;20044;-70
2023/07/22 11:29:24;;;;;;;1999.90;999.90;;;16.80;99.90;;;;;;5033776;28;20041;-70
2023/07/22 11:31:51;;;;;;;1999.90;999.90;;;16.70;99.90;;;;;;5027729;28;20053;-71
2023/07/22 11:34:20;;;;;;;1999.90;999.90;;;16.70;99.90;;;;;;5039109;28;20130;-70
2023/07/22 11:36:47;;;;;;;1999.90;999.90;;;16.60;99.90;;;;;;5045278;28;20045;-70
2023/07/22 11:39:15;;;;;;;1999.90;999.90;;;16.70;99.90;;;;;;5040839;28;20044;-70
2023/07/22 11:41:41;;;;;;;1999.90;999.90;;;16.60;99.90;;;;;;5038902;28;20045;-70
2023/07/22 11:44:12;;;;;;;1999.90;999.90;;;16.60;99.90;;;;;;5037618;28;20037;-70
2023/07/22 11:46:58;;;;;;;1999.90;999.90;;;16.50;99.90;;;;;;5026389;28;20538;-71
2023/07/22 11:49:28;;;;;;;1999.90;999.90;;;16.50;99.90;;;;;;5058628;28;20524;-70
2023/07/22 11:51:58;;;;;;;1999.90;999.90;;;16.50;99.90;;;;;;5043704;28;20041;-70
2023/07/22 11:54:25;;;;;;;1999.90;999.90;;;16.50;99.90;;;;;;5041648;28;20037;-70
2023/07/22 11:56:50;;;;;;;1999.90;999.90;;;16.50;99.90;;;;;;5044276;28;20081;-70
2023/07/22 11:59:16;;;;;;;1999.90;999.90;;;16.50;99.90;;;;;;5038766;28;20766;-70
2023/07/22 12:01:46;;;;;;;1999.90;999.90;;;16.60;99.90;;;;;;5042572;28;20048;-70